Time;durP1;ratioP1;P1;durP2;ratioP2;P2;SDS_P1;SDS_P2;PMS_P1;PMS_P2;Temp;Humidity;BMP_temperature;BMP_pressure;BME280_temperature;BME280_humidity;BME280_pressure;Samples;Min_cycle;Max_cycle;Signal;HPM_P1;HPM_P2
2023/12/22 00:01:24;;;;;;;14.88;3.13;;;12.50;99.90;;;;;;5050325;28;20103;-85
2023/12/22 00:03:50;;;;;;;15.85;2.83;;;12.80;99.90;;;;;;5050540;28;20397;-85
2023/12/22 00:06:16;;;;;;;13.75;2.65;;;13.00;99.90;;;;;;5029712;28;20132;-85
2023/12/22 00:08:41;;;;;;;9.52;2.58;;;13.50;99.90;;;;;;5031284;28;20014;-85
2023/12/22 00:11:08;;;;;;;9.70;2.40;;;13.10;99.90;;;;;;5030470;28;20028;-85
2023/12/22 00:13:33;;;;;;;12.25;2.53;;;12.50;99.90;;;;;;5030449;28;20022;-86
2023/12/22 00:16:00;;;;;;;20.02;3.10;;;12.40;99.90;;;;;;5030433;28;20040;-86
2023/12/22 00:18:26;;;;;;;13.05;2.20;;;13.00;99.90;;;;;;5029014;28;20026;-85
2023/12/22 00:20:51;;;;;;;11.48;2.30;;;12.30;99.90;;;;;;5049864;28;20082;-89
2023/12/22 00:23:17;;;;;;;14.63;2.35;;;12.60;99.90;;;;;;5049994;28;20439;-85
2023/12/22 00:25:42;;;;;;;11.75;2.63;;;12.50;99.90;;;;;;5050888;28;20017;-85
2023/12/22 00:28:08;;;;;;;14.52;2.53;;;12.50;99.90;;;;;;5032278;28;20562;-85
2023/12/22 00:30:34;;;;;;;12.18;2.58;;;12.50;99.90;;;;;;5031027;28;20026;-85
2023/12/22 00:32:59;;;;;;;9.38;2.05;;;12.30;99.90;;;;;;5029989;28;20021;-86
2023/12/22 00:35:25;;;;;;;12.98;3.03;;;13.00;99.90;;;;;;5029942;28;20111;-86
2023/12/22 00:37:52;;;;;;;13.95;2.38;;;12.50;99.90;;;;;;5029974;28;20381;-86
2023/12/22 00:40:18;;;;;;;14.63;2.93;;;12.50;99.90;;;;;;5045937;28;20022;-86
2023/12/22 00:42:44;;;;;;;12.55;2.50;;;13.20;99.90;;;;;;5032745;28;20047;-85
2023/12/22 00:45:10;;;;;;;12.65;2.58;;;12.10;99.90;;;;;;5049624;28;20481;-85
2023/12/22 00:47:36;;;;;;;10.63;2.45;;;12.60;99.90;;;;;;5049647;28;20284;-85
2023/12/22 00:50:02;;;;;;;13.45;2.13;;;13.00;99.90;;;;;;5031668;28;20391;-85
2023/12/22 00:52:28;;;;;;;9.48;2.35;;;11.90;99.90;;;;;;5049582;28;20013;-85
2023/12/22 00:54:53;;;;;;;17.77;2.80;;;12.80;99.90;;;;;;5048511;28;20029;-85
2023/12/22 00:57:19;;;;;;;9.80;2.25;;;12.10;99.90;;;;;;5049392;28;20035;-86
2023/12/22 00:59:47;;;;;;;14.65;2.65;;;12.20;99.90;;;;;;5050233;28;20067;-86
2023/12/22 01:02:17;;;;;;;16.65;3.15;;;12.50;99.90;;;;;;5032172;28;20481;-88
2023/12/22 01:04:43;;;;;;;16.25;2.92;;;11.70;99.90;;;;;;5049592;28;20400;-86
2023/12/22 01:07:09;;;;;;;13.18;2.92;;;12.40;99.90;;;;;;5030966;28;20033;-86
2023/12/22 01:09:36;;;;;;;11.55;2.63;;;12.20;99.90;;;;;;5049233;28;20021;-85
2023/12/22 01:12:04;;;;;;;14.77;2.47;;;12.30;99.90;;;;;;5049195;28;20066;-85
2023/12/22 01:14:30;;;;;;;10.27;2.38;;;12.00;99.90;;;;;;5049150;28;20036;-85
2023/12/22 01:16:56;;;;;;;9.68;2.63;;;12.60;99.90;;;;;;5049064;28;20020;-86
2023/12/22 01:19:22;;;;;;;17.35;2.70;;;12.60;99.90;;;;;;5049214;28;20075;-85
2023/12/22 01:21:48;;;;;;;12.57;2.22;;;12.60;99.90;;;;;;5031672;28;20029;-85
2023/12/22 01:24:13;;;;;;;10.05;2.15;;;12.10;99.90;;;;;;5049402;28;20533;-85
2023/12/22 01:26:39;;;;;;;9.07;2.03;;;12.70;99.90;;;;;;5049134;28;20112;-86
2023/12/22 01:29:04;;;;;;;11.38;2.30;;;12.60;99.90;;;;;;5031199;28;20035;-85
2023/12/22 01:31:30;;;;;;;10.70;2.10;;;12.30;99.90;;;;;;5048912;28;20108;-85
2023/12/22 01:33:55;;;;;;;10.13;2.75;;;12.10;99.90;;;;;;5049000;28;20027;-87
2023/12/22 01:36:21;;;;;;;12.63;3.00;;;12.60;99.90;;;;;;5048653;28;20484;-85
2023/12/22 01:38:47;;;;;;;11.30;2.20;;;12.80;99.90;;;;;;5031899;28;20048;-85
2023/12/22 01:41:13;;;;;;;15.50;2.55;;;12.00;99.90;;;;;;5048888;28;20075;-85
2023/12/22 01:43:39;;;;;;;11.00;2.17;;;12.30;99.90;;;;;;5048831;28;20017;-86
2023/12/22 01:46:07;;;;;;;19.92;2.92;;;12.40;99.90;;;;;;5048475;28;20487;-85
2023/12/22 01:48:34;;;;;;;10.70;1.92;;;12.60;99.90;;;;;;5045189;28;20104;-88
2023/12/22 01:51:01;;;;;;;15.52;2.33;;;12.00;99.90;;;;;;5047627;28;20044;-85
2023/12/22 01:53:27;;;;;;;14.88;2.60;;;11.90;99.90;;;;;;5048508;28;20048;-88
2023/12/22 01:55:55;;;;;;;12.38;2.97;;;12.50;99.90;;;;;;5048741;28;20388;-89
2023/12/22 01:58:23;;;;;;;13.05;2.55;;;12.40;99.90;;;;;;5048532;28;20435;-85
2023/12/22 02:00:49;;;;;;;;;;;12.60;99.90;;;;;;5049293;28;20025;-86
2023/12/22 02:03:16;;;;;;;12.05;2.28;;;12.30;99.90;;;;;;5049093;28;19916;-85
2023/12/22 02:05:43;;;;;;;14.45;2.63;;;12.50;99.90;;;;;;5030821;28;20025;-86
2023/12/22 02:08:09;;;;;;;16.65;2.65;;;12.10;99.90;;;;;;5048667;28;20044;-86
2023/12/22 02:10:35;;;;;;;13.27;2.22;;;12.70;99.90;;;;;;5031030;28;20021;-86
2023/12/22 02:13:01;;;;;;;10.68;2.35;;;12.50;99.90;;;;;;5047987;28;20112;-85
2023/12/22 02:15:27;;;;;;;9.75;2.80;;;11.70;99.90;;;;;;5030191;28;20048;-86
2023/12/22 02:18:10;;;;;;;7.75;1.83;;;12.00;99.90;;;;;;5052081;28;20107;-85
2023/12/22 02:20:37;;;;;;;12.80;2.40;;;11.80;99.90;;;;;;5052476;28;20127;-86
2023/12/22 02:23:03;;;;;;;15.07;2.30;;;12.00;99.90;;;;;;5051206;28;20028;-85
2023/12/22 02:25:29;;;;;;;15.68;2.55;;;12.40;99.90;;;;;;5051675;28;20021;-86
2023/12/22 02:28:01;;;;;;;13.57;2.47;;;12.50;99.90;;;;;;5052224;28;20033;-85
2023/12/22 02:30:37;;;;;;;14.35;2.88;;;12.20;99.90;;;;;;5033702;28;20090;-85
2023/12/22 02:33:08;;;;;;;9.82;2.88;;;12.10;99.90;;;;;;5051758;28;20572;-88
2023/12/22 02:35:38;;;;;;;15.52;2.55;;;12.20;99.90;;;;;;5052197;28;20079;-85
2023/12/22 02:38:05;;;;;;;14.35;2.20;;;12.30;99.90;;;;;;5052178;28;20079;-85
2023/12/22 02:40:31;;;;;;;11.98;2.33;;;12.10;99.90;;;;;;5051656;28;20021;-85
2023/12/22 02:42:57;;;;;;;11.20;2.13;;;11.90;99.90;;;;;;5052007;28;20068;-86
2023/12/22 02:45:23;;;;;;;10.52;2.15;;;12.10;99.90;;;;;;5051254;28;20036;-85
2023/12/22 02:47:48;;;;;;;11.15;2.63;;;12.60;99.90;;;;;;5052813;28;20029;-86
2023/12/22 02:50:16;;;;;;;9.43;1.98;;;12.90;99.90;;;;;;5051891;28;20036;-85
2023/12/22 02:52:42;;;;;;;8.77;2.17;;;12.20;99.90;;;;;;5041985;28;20300;-85
2023/12/22 02:55:08;;;;;;;13.68;2.00;;;12.10;99.90;;;;;;5033684;28;20428;-86
2023/12/22 02:57:33;;;;;;;10.43;2.05;;;12.00;99.90;;;;;;5051729;28;20033;-86
2023/12/22 02:59:59;;;;;;;8.00;2.17;;;12.20;99.90;;;;;;5051038;28;20021;-86
2023/12/22 03:02:25;;;;;;;9.38;1.98;;;12.60;99.90;;;;;;5051073;28;20159;-85
2023/12/22 03:04:50;;;;;;;9.10;1.80;;;12.60;99.90;;;;;;5039374;28;20028;-85
2023/12/22 03:07:16;;;;;;;11.27;1.90;;;12.40;99.90;;;;;;5050919;28;20040;-85
2023/12/22 03:09:43;;;;;;;10.70;2.00;;;12.50;99.90;;;;;;5051486;28;20492;-85
2023/12/22 03:12:10;;;;;;;13.02;1.98;;;12.70;99.90;;;;;;5051385;28;20471;-86
2023/12/22 03:14:36;;;;;;;13.55;2.20;;;12.70;99.90;;;;;;5033548;28;20412;-85
2023/12/22 03:17:04;;;;;;;14.15;2.75;;;12.50;99.90;;;;;;5050296;28;20013;-85
2023/12/22 03:19:30;;;;;;;9.60;2.03;;;11.90;99.90;;;;;;5049685;28;20404;-86
2023/12/22 03:21:59;;;;;;;14.70;2.75;;;12.40;99.90;;;;;;5032137;28;20044;-86
2023/12/22 03:24:25;;;;;;;7.65;1.70;;;12.00;99.90;;;;;;5049564;28;20029;-86
2023/12/22 03:26:51;;;;;;;13.40;2.20;;;12.30;99.90;;;;;;5050743;28;20073;-85
2023/12/22 03:29:17;;;;;;;7.97;2.75;;;12.60;99.90;;;;;;5033325;28;20025;-84
2023/12/22 03:31:44;;;;;;;10.43;2.40;;;12.60;99.90;;;;;;5033230;28;20025;-86
2023/12/22 03:34:09;;;;;;;8.20;1.73;;;13.20;99.90;;;;;;5051028;28;20099;-85
2023/12/22 03:36:35;;;;;;;7.40;2.00;;;12.80;99.90;;;;;;5051003;28;20159;-86
2023/12/22 03:39:02;;;;;;;6.10;1.65;;;13.20;99.90;;;;;;5050935;28;20013;-86
2023/12/22 03:41:29;;;;;;;5.30;1.60;;;12.80;99.90;;;;;;5059990;28;20477;-89
2023/12/22 03:43:55;;;;;;;8.88;2.17;;;12.10;99.90;;;;;;5051466;28;20024;-85
2023/12/22 03:46:20;;;;;;;9.02;2.13;;;11.90;99.90;;;;;;5061263;28;20024;-85
2023/12/22 03:48:46;;;;;;;9.02;1.50;;;12.50;99.90;;;;;;5070912;28;20032;-88
2023/12/22 03:51:13;;;;;;;11.93;1.80;;;12.80;99.90;;;;;;5048258;28;20035;-87
2023/12/22 03:53:38;;;;;;;9.20;2.42;;;12.70;99.90;;;;;;5070741;28;20108;-85
2023/12/22 03:56:04;;;;;;;6.25;1.92;;;13.00;99.90;;;;;;5063550;28;20159;-84
2023/12/22 03:58:30;;;;;;;10.32;1.67;;;11.70;99.90;;;;;;5051987;28;20460;-89
2023/12/22 04:00:56;;;;;;;7.55;1.50;;;12.00;99.90;;;;;;5033519;28;20172;-86
2023/12/22 04:03:22;;;;;;;9.20;1.73;;;12.50;99.90;;;;;;5051530;28;20087;-90
2023/12/22 04:05:47;;;;;;;5.78;1.35;;;13.00;99.90;;;;;;5061715;28;20805;-88
2023/12/22 04:08:13;;;;;;;5.00;1.30;;;12.10;99.90;;;;;;5050545;28;20112;-89
2023/12/22 04:10:38;;;;;;;6.68;1.27;;;12.30;99.90;;;;;;5050531;28;20024;-90
2023/12/22 04:13:04;;;;;;;7.38;1.50;;;12.20;99.90;;;;;;5032470;28;20056;-85
2023/12/22 04:15:30;;;;;;;8.65;1.52;;;12.10;99.90;;;;;;5050366;28;20032;-89
2023/12/22 04:17:55;;;;;;;3.70;1.20;;;11.80;99.90;;;;;;5051121;28;20488;-88
2023/12/22 04:20:21;;;;;;;8.57;1.50;;;12.40;99.90;;;;;;5031582;28;20024;-88
2023/12/22 04:22:47;;;;;;;12.13;1.98;;;12.40;99.90;;;;;;5050318;28;20265;-90
2023/12/22 04:25:12;;;;;;;4.28;1.20;;;12.20;99.90;;;;;;5050466;28;20021;-89
2023/12/22 04:27:38;;;;;;;6.43;1.70;;;13.10;99.90;;;;;;5050024;28;20033;-85
2023/12/22 04:30:04;;;;;;;5.43;1.20;;;12.30;99.90;;;;;;5050068;28;20053;-89
2023/12/22 04:32:29;;;;;;;8.93;1.85;;;11.80;99.90;;;;;;5050198;28;20029;-89
2023/12/22 04:34:55;;;;;;;5.05;1.00;;;12.30;99.90;;;;;;5050385;28;20111;-89
2023/12/22 04:37:22;;;;;;;5.13;1.40;;;12.30;99.90;;;;;;5049875;28;20076;-89
2023/12/22 04:39:47;;;;;;;6.22;1.30;;;12.10;99.90;;;;;;5049066;28;20272;-89
2023/12/22 04:42:13;;;;;;;5.53;1.33;;;12.10;99.90;;;;;;5049730;28;20044;-88
2023/12/22 04:44:39;;;;;;;5.35;1.20;;;12.40;99.90;;;;;;5049489;28;20471;-89
2023/12/22 04:47:04;;;;;;;5.90;1.17;;;12.30;99.90;;;;;;5031829;28;20035;-90
2023/12/22 04:49:30;;;;;;;5.53;1.13;;;11.70;99.90;;;;;;5049702;28;20021;-89
2023/12/22 04:51:55;;;;;;;5.43;1.80;;;13.00;99.90;;;;;;5050275;28;20028;-89
2023/12/22 04:54:21;;;;;;;4.05;0.98;;;12.40;99.90;;;;;;5031986;28;20381;-89
2023/12/22 04:56:46;;;;;;;3.88;1.00;;;12.00;99.90;;;;;;5049494;28;20025;-91
2023/12/22 04:59:12;;;;;;;5.25;1.10;;;12.50;99.90;;;;;;5049440;28;20057;-91
2023/12/22 05:01:37;;;;;;;7.15;1.83;;;12.20;99.90;;;;;;5049095;28;20045;-86
2023/12/22 05:04:03;;;;;;;6.05;1.13;;;12.70;99.90;;;;;;5064526;28;20021;-86
2023/12/22 05:06:29;;;;;;;5.10;1.25;;;11.80;99.90;;;;;;5070099;28;20037;-85
2023/12/22 05:08:56;;;;;;;4.13;1.05;;;12.40;99.90;;;;;;5059726;28;20412;-86
2023/12/22 05:11:22;;;;;;;3.40;1.00;;;12.70;99.90;;;;;;5049013;28;20108;-89
2023/12/22 05:13:48;;;;;;;2.15;0.70;;;12.50;99.90;;;;;;5031257;28;20115;-87
2023/12/22 05:16:13;;;;;;;4.60;1.25;;;12.40;99.90;;;;;;5048651;28;20044;-85
2023/12/22 05:18:40;;;;;;;2.13;0.80;;;11.80;99.90;;;;;;5050929;28;20024;-88
2023/12/22 05:21:05;;;;;;;2.50;0.80;;;12.20;99.90;;;;;;5060800;28;20107;-85
2023/12/22 05:23:31;;;;;;;3.78;1.13;;;12.40;99.90;;;;;;5046428;28;20116;-87
2023/12/22 05:25:56;;;;;;;3.85;0.88;;;12.30;99.90;;;;;;5050519;28;20492;-85
2023/12/22 05:28:22;;;;;;;3.22;0.85;;;12.20;99.90;;;;;;5048834;28;20033;-84
2023/12/22 05:30:48;;;;;;;2.10;1.00;;;12.50;99.90;;;;;;5066548;28;20021;-85
2023/12/22 05:33:13;;;;;;;2.42;0.90;;;11.70;99.90;;;;;;5068642;28;20074;-85
2023/12/22 05:35:39;;;;;;;0.68;0.55;;;12.10;99.90;;;;;;5068892;28;20028;-84
2023/12/22 05:38:05;;;;;;;0.80;0.63;;;11.80;99.90;;;;;;5069036;28;20021;-92
2023/12/22 05:40:31;;;;;;;1.55;0.60;;;12.20;99.90;;;;;;5069449;28;20526;-85
2023/12/22 05:42:57;;;;;;;3.63;0.80;;;12.20;99.90;;;;;;5053940;28;20024;-83
2023/12/22 05:45:24;;;;;;;1.20;0.63;;;12.70;99.90;;;;;;5053470;28;20032;-89
2023/12/22 05:47:50;;;;;;;1.73;0.90;;;12.20;99.90;;;;;;5050178;28;20053;-83
2023/12/22 05:50:16;;;;;;;3.00;1.35;;;11.90;99.90;;;;;;5043563;28;20053;-83
2023/12/22 05:52:43;;;;;;;3.15;1.00;;;11.70;99.90;;;;;;5045698;28;20029;-86
2023/12/22 05:55:09;;;;;;;2.70;0.77;;;12.00;99.90;;;;;;5047937;28;20021;-84
2023/12/22 05:57:35;;;;;;;3.13;0.80;;;11.90;99.90;;;;;;5051158;28;20086;-84
2023/12/22 06:00:00;;;;;;;4.85;0.90;;;12.30;99.90;;;;;;5053882;28;20021;-85
2023/12/22 06:02:26;;;;;;;2.50;0.90;;;12.00;99.90;;;;;;5051768;28;20075;-85
2023/12/22 06:04:51;;;;;;;3.50;0.70;;;12.00;99.90;;;;;;5051878;28;20037;-84
2023/12/22 06:07:19;;;;;;;5.00;0.95;;;11.90;99.90;;;;;;5051961;28;20128;-88
2023/12/22 06:09:44;;;;;;;1.75;0.95;;;12.00;99.90;;;;;;5051994;28;20492;-89
2023/12/22 06:12:10;;;;;;;3.97;0.90;;;11.80;99.90;;;;;;5050689;28;20032;-89
2023/12/22 06:14:36;;;;;;;5.43;1.15;;;12.20;99.90;;;;;;5051389;28;20461;-88
2023/12/22 06:17:02;;;;;;;3.95;0.90;;;11.80;99.90;;;;;;5052647;28;20087;-85
2023/12/22 06:19:28;;;;;;;2.63;1.10;;;11.60;99.90;;;;;;5053277;28;20028;-85
2023/12/22 06:21:54;;;;;;;2.30;0.82;;;11.70;99.90;;;;;;5052369;28;20554;-88
2023/12/22 06:24:19;;;;;;;3.47;1.02;;;12.30;99.90;;;;;;5052331;28;20053;-86
2023/12/22 06:26:45;;;;;;;1.48;1.00;;;12.20;99.90;;;;;;5034381;28;20025;-86
2023/12/22 06:29:10;;;;;;;1.10;0.80;;;12.50;99.90;;;;;;5052321;28;20100;-86
2023/12/22 06:31:36;;;;;;;1.92;0.90;;;11.80;99.90;;;;;;5034263;28;20036;-87
2023/12/22 06:34:02;;;;;;;2.10;1.00;;;12.00;99.90;;;;;;5053070;28;20469;-85
2023/12/22 06:36:29;;;;;;;3.28;0.90;;;11.60;99.90;;;;;;5052958;28;20433;-83
2023/12/22 06:38:55;;;;;;;2.65;0.90;;;11.80;99.90;;;;;;5052149;28;20056;-85
2023/12/22 06:41:26;;;;;;;2.38;0.88;;;12.10;99.90;;;;;;5051983;28;20115;-83
2023/12/22 06:43:51;;;;;;;1.90;0.82;;;12.20;99.90;;;;;;5052061;28;20071;-85
2023/12/22 06:46:27;;;;;;;2.38;0.90;;;12.00;99.90;;;;;;5034037;28;20029;-84
2023/12/22 06:48:54;;;;;;;4.15;1.15;;;11.60;99.90;;;;;;5033826;28;20884;-84
2023/12/22 06:51:26;;;;;;;4.97;1.40;;;11.60;99.90;;;;;;5051801;28;20025;-83
2023/12/22 06:53:52;;;;;;;3.90;1.00;;;11.40;99.90;;;;;;5051869;28;20025;-84
2023/12/22 06:56:18;;;;;;;5.28;1.23;;;11.60;99.90;;;;;;5051797;28;20075;-84
2023/12/22 06:58:46;;;;;;;3.47;1.10;;;11.60;99.90;;;;;;5051574;28;20021;-85
2023/12/22 07:01:12;;;;;;;2.88;1.15;;;11.80;99.90;;;;;;5051015;28;20112;-84
2023/12/22 07:03:38;;;;;;;4.22;1.33;;;11.90;99.90;;;;;;5051088;28;20104;-85
2023/12/22 07:06:04;;;;;;;2.83;1.00;;;11.80;99.90;;;;;;5052459;28;20031;-83
2023/12/22 07:08:30;;;;;;;3.53;0.93;;;11.30;99.90;;;;;;5034503;28;20022;-83
2023/12/22 07:10:55;;;;;;;6.75;1.67;;;11.60;99.90;;;;;;5051420;28;20538;-83
2023/12/22 07:13:21;;;;;;;4.20;1.35;;;11.50;99.90;;;;;;5051439;28;20434;-84
2023/12/22 07:15:47;;;;;;;6.20;1.38;;;11.50;99.90;;;;;;5051423;28;20029;-83
2023/12/22 07:18:13;;;;;;;5.85;1.55;;;12.30;99.90;;;;;;5051514;28;20017;-83
2023/12/22 07:20:39;;;;;;;7.00;1.40;;;11.60;99.90;;;;;;5051251;28;20072;-85
2023/12/22 07:23:05;;;;;;;6.20;1.50;;;12.30;99.90;;;;;;5052146;28;20024;-83
2023/12/22 07:25:41;;;;;;;6.70;1.55;;;10.60;99.90;;;;;;5034214;28;20020;-85
2023/12/22 07:28:06;;;;;;;6.75;1.67;;;11.50;99.90;;;;;;5051184;28;20025;-83
2023/12/22 07:30:32;;;;;;;5.47;1.30;;;11.70;99.90;;;;;;5051957;28;20025;-85
2023/12/22 07:32:57;;;;;;;9.45;2.17;;;12.00;99.90;;;;;;5051043;28;20104;-83
2023/12/22 07:35:23;;;;;;;8.75;1.48;;;12.00;99.90;;;;;;5051121;28;20021;-83
2023/12/22 07:37:48;;;;;;;8.55;2.17;;;11.90;99.90;;;;;;5051014;28;20374;-83
2023/12/22 07:40:14;;;;;;;8.55;1.55;;;11.90;99.90;;;;;;5050956;28;20158;-86
2023/12/22 07:42:40;;;;;;;5.18;1.38;;;11.10;99.90;;;;;;5051022;28;20037;-83
2023/12/22 07:45:07;;;;;;;7.05;1.33;;;12.00;99.90;;;;;;5051691;28;20423;-83
2023/12/22 07:47:33;;;;;;;7.65;1.80;;;11.30;99.90;;;;;;5051683;28;20027;-83
2023/12/22 07:49:58;;;;;;;6.03;1.45;;;12.00;99.90;;;;;;5050781;28;20025;-83
2023/12/22 07:52:24;;;;;;;8.82;1.73;;;11.50;99.90;;;;;;5050873;28;20037;-83
2023/12/22 07:54:51;;;;;;;8.15;2.03;;;11.50;99.90;;;;;;5050687;28;20590;-83
2023/12/22 07:57:16;;;;;;;13.32;1.98;;;12.00;99.90;;;;;;5050524;28;20488;-84
2023/12/22 07:59:42;;;;;;;7.40;1.65;;;12.00;99.90;;;;;;5050672;28;20064;-84
2023/12/22 08:02:08;;;;;;;6.43;2.10;;;11.70;99.90;;;;;;5050325;28;20041;-83
2023/12/22 08:04:33;;;;;;;6.70;1.88;;;11.70;99.90;;;;;;5033439;28;20477;-84
2023/12/22 08:06:59;;;;;;;7.75;2.03;;;12.10;99.90;;;;;;5050507;28;20458;-83
2023/12/22 08:09:24;;;;;;;7.90;1.70;;;11.60;99.90;;;;;;5050404;28;20055;-84
2023/12/22 08:11:52;;;;;;;7.75;2.05;;;12.20;99.90;;;;;;5050406;28;20037;-84
2023/12/22 08:14:18;;;;;;;10.70;2.40;;;12.00;99.90;;;;;;5050344;28;20025;-84
2023/12/22 08:16:44;;;;;;;8.57;1.83;;;11.80;99.90;;;;;;5050358;28;20036;-84
2023/12/22 08:19:10;;;;;;;12.60;2.75;;;11.80;99.90;;;;;;5050312;28;20663;-83
2023/12/22 08:21:36;;;;;;;5.05;1.73;;;12.10;99.90;;;;;;5033016;28;20464;-84
2023/12/22 08:24:01;;;;;;;12.90;2.05;;;12.00;99.90;;;;;;5049935;28;20029;-86
2023/12/22 08:26:27;;;;;;;12.52;2.15;;;11.30;99.90;;;;;;5049973;28;20481;-83
2023/12/22 08:28:52;;;;;;;10.02;2.45;;;12.00;99.90;;;;;;5050028;28;20366;-84
2023/12/22 08:31:18;;;;;;;17.23;2.75;;;12.10;99.90;;;;;;5050160;28;20025;-83
2023/12/22 08:33:45;;;;;;;10.98;2.75;;;11.50;99.90;;;;;;5049876;28;20032;-84
2023/12/22 08:36:11;;;;;;;10.98;2.15;;;11.80;99.90;;;;;;5049807;28;20032;-85
2023/12/22 08:38:40;;;;;;;10.93;2.60;;;11.50;99.90;;;;;;5032753;28;20021;-84
2023/12/22 08:41:11;;;;;;;16.02;2.55;;;11.90;99.90;;;;;;5050550;28;20060;-84
2023/12/22 08:43:38;;;;;;;17.25;2.92;;;11.20;99.90;;;;;;5032649;28;20037;-83
2023/12/22 08:46:04;;;;;;;15.13;2.90;;;11.40;99.90;;;;;;5049689;28;20025;-85
2023/12/22 08:48:30;;;;;;;14.80;2.67;;;12.00;99.90;;;;;;5049681;28;20373;-84
2023/12/22 08:50:55;;;;;;;20.83;3.15;;;12.00;99.90;;;;;;5049560;28;20075;-84
2023/12/22 08:53:21;;;;;;;18.92;3.35;;;12.30;99.90;;;;;;5049542;28;20079;-83
2023/12/22 08:55:46;;;;;;;17.55;2.92;;;11.80;99.90;;;;;;5049534;28;20036;-83
2023/12/22 08:58:12;;;;;;;18.55;3.13;;;11.50;99.90;;;;;;5031663;28;20025;-84
2023/12/22 09:00:37;;;;;;;18.67;3.58;;;11.70;99.90;;;;;;5050327;28;20027;-83
2023/12/22 09:03:03;;;;;;;20.63;3.30;;;12.30;99.90;;;;;;5049372;28;20378;-85
2023/12/22 09:05:29;;;;;;;13.98;2.75;;;11.20;99.90;;;;;;5049514;28;20041;-84
2023/12/22 09:07:55;;;;;;;16.10;3.35;;;12.40;99.90;;;;;;5049446;28;20064;-83
2023/12/22 09:10:21;;;;;;;18.60;3.20;;;12.20;99.90;;;;;;5049282;28;20032;-84
2023/12/22 09:12:46;;;;;;;12.48;2.70;;;12.00;99.90;;;;;;5031337;28;20025;-83
2023/12/22 09:15:12;;;;;;;12.88;2.80;;;11.90;99.90;;;;;;5049332;28;20059;-85
2023/12/22 09:17:38;;;;;;;21.88;3.35;;;11.40;99.90;;;;;;5050023;28;20025;-83
2023/12/22 09:20:04;;;;;;;19.10;3.13;;;11.80;99.90;;;;;;5049181;28;20070;-84
2023/12/22 09:22:30;;;;;;;16.75;3.42;;;11.20;99.90;;;;;;5049124;28;20032;-83
2023/12/22 09:24:56;;;;;;;19.00;3.40;;;12.20;99.90;;;;;;5048724;28;20350;-83
2023/12/22 09:27:21;;;;;;;19.38;3.47;;;12.00;99.90;;;;;;5049033;28;20465;-84
2023/12/22 09:29:47;;;;;;;22.05;3.35;;;11.80;99.90;;;;;;5049064;28;20022;-83
2023/12/22 09:32:13;;;;;;;20.55;4.05;;;12.00;99.90;;;;;;5031205;28;20036;-83
2023/12/22 09:34:39;;;;;;;22.00;3.92;;;11.60;99.90;;;;;;5032015;28;20400;-83
2023/12/22 09:37:05;;;;;;;21.27;3.90;;;11.70;99.90;;;;;;5048942;28;20078;-83
2023/12/22 09:39:31;;;;;;;20.15;3.30;;;11.80;99.90;;;;;;5048915;28;20021;-83
2023/12/22 09:41:56;;;;;;;20.92;3.83;;;12.10;99.90;;;;;;5048818;28;20114;-84
2023/12/22 09:44:22;;;;;;;26.40;4.07;;;11.90;99.90;;;;;;5030985;28;20029;-83
2023/12/22 09:46:52;;;;;;;21.20;3.85;;;12.00;99.90;;;;;;5048934;28;20036;-84
2023/12/22 09:49:21;;;;;;;26.38;3.65;;;12.30;99.90;;;;;;5048854;28;20025;-85
2023/12/22 09:51:49;;;;;;;23.25;4.05;;;12.00;99.90;;;;;;5048762;28;20035;-83
2023/12/22 09:54:16;;;;;;;18.80;3.53;;;12.10;99.90;;;;;;5048880;28;20017;-83
2023/12/22 09:56:42;;;;;;;19.88;3.90;;;11.70;99.90;;;;;;5049600;28;20082;-84
2023/12/22 09:59:12;;;;;;;20.85;3.22;;;12.60;99.90;;;;;;5048881;28;20056;-84
2023/12/22 10:01:43;;;;;;;25.65;4.40;;;12.10;99.90;;;;;;5048666;28;20037;-85
2023/12/22 10:04:09;;;;;;;27.63;4.72;;;11.70;99.90;;;;;;5049510;28;20025;-84
2023/12/22 10:06:35;;;;;;;22.58;4.15;;;11.60;99.90;;;;;;5030885;28;20025;-84
2023/12/22 10:09:04;;;;;;;21.05;3.90;;;11.90;99.90;;;;;;5048712;28;20036;-84
2023/12/22 10:11:32;;;;;;;20.15;3.65;;;11.90;99.90;;;;;;5048701;28;20021;-83
2023/12/22 10:14:00;;;;;;;21.92;4.85;;;11.70;99.90;;;;;;5030873;28;20021;-83
2023/12/22 10:16:25;;;;;;;22.07;4.97;;;12.30;99.90;;;;;;5048693;28;20029;-83
2023/12/22 10:18:51;;;;;;;22.33;4.10;;;12.30;99.90;;;;;;5048485;28;20098;-83
2023/12/22 10:21:17;;;;;;;23.77;4.00;;;12.00;99.90;;;;;;5030568;28;20401;-83
2023/12/22 10:23:43;;;;;;;25.80;4.50;;;11.90;99.90;;;;;;5049316;28;20025;-83
2023/12/22 10:26:11;;;;;;;23.08;4.82;;;12.40;99.90;;;;;;5048539;28;20029;-84
2023/12/22 10:28:37;;;;;;;23.65;3.78;;;12.50;99.90;;;;;;5048504;28;20075;-84
2023/12/22 10:31:05;;;;;;;26.88;4.07;;;12.80;99.90;;;;;;5048514;28;20052;-83
2023/12/22 10:33:31;;;;;;;26.15;4.47;;;11.60;99.90;;;;;;5030499;28;20551;-84
2023/12/22 10:35:58;;;;;;;24.67;4.25;;;12.30;99.90;;;;;;5048399;28;20033;-84
2023/12/22 10:38:24;;;;;;;28.17;4.40;;;11.80;99.90;;;;;;5051272;28;20029;-86
2023/12/22 10:40:50;;;;;;;26.05;5.07;;;12.30;99.90;;;;;;5052084;28;20091;-84
2023/12/22 10:43:16;;;;;;;24.17;4.93;;;12.00;99.90;;;;;;5052705;28;20413;-83
2023/12/22 10:45:41;;;;;;;26.90;4.10;;;12.00;99.90;;;;;;5052699;28;20024;-84
2023/12/22 10:48:08;;;;;;;25.70;4.88;;;11.20;99.90;;;;;;5052027;28;20091;-84
2023/12/22 10:50:33;;;;;;;24.95;5.03;;;12.10;99.90;;;;;;5051900;28;20448;-84
2023/12/22 10:53:01;;;;;;;30.10;4.53;;;12.00;99.90;;;;;;5051922;28;20483;-84
2023/12/22 10:55:26;;;;;;;20.07;3.73;;;12.20;99.90;;;;;;5051885;28;20031;-84
2023/12/22 10:57:54;;;;;;;28.48;4.53;;;12.40;99.90;;;;;;5051756;28;20021;-83
2023/12/22 11:00:21;;;;;;;24.40;4.13;;;12.50;99.90;;;;;;5051713;28;20039;-83
2023/12/22 11:02:55;;;;;;;23.13;4.03;;;11.50;99.90;;;;;;5034313;28;20037;-83
2023/12/22 11:05:25;;;;;;;18.98;3.72;;;12.30;99.90;;;;;;5051742;28;20025;-83
2023/12/22 11:07:54;;;;;;;18.75;4.18;;;11.60;99.90;;;;;;5051606;28;20032;-85
2023/12/22 11:10:21;;;;;;;26.10;4.15;;;12.10;99.90;;;;;;5051576;28;20032;-83
2023/12/22 11:12:48;;;;;;;26.27;4.35;;;12.10;99.90;;;;;;5052386;28;20039;-83
2023/12/22 11:15:15;;;;;;;21.48;3.63;;;11.60;99.90;;;;;;5034310;28;20120;-83
2023/12/22 11:17:42;;;;;;;22.45;3.42;;;11.80;99.90;;;;;;5051470;28;20043;-84
2023/12/22 11:20:12;;;;;;;18.83;3.55;;;12.60;99.90;;;;;;5051474;28;20268;-84
2023/12/22 11:22:39;;;;;;;23.65;3.72;;;11.80;99.90;;;;;;5051169;28;20408;-84
2023/12/22 11:25:08;;;;;;;22.08;4.15;;;12.60;99.90;;;;;;5051261;28;20062;-85
2023/12/22 11:27:34;;;;;;;16.15;3.33;;;11.80;99.90;;;;;;5051101;28;20495;-84
2023/12/22 11:30:01;;;;;;;22.33;4.57;;;12.50;99.90;;;;;;5051229;28;20025;-84
2023/12/22 11:32:28;;;;;;;21.88;3.55;;;12.30;99.90;;;;;;5051145;28;20029;-84
2023/12/22 11:34:56;;;;;;;23.73;4.05;;;11.90;99.90;;;;;;5051156;28;20468;-84
2023/12/22 11:37:22;;;;;;;17.13;3.50;;;12.30;99.90;;;;;;5051052;28;20043;-83
2023/12/22 11:39:48;;;;;;;18.75;4.25;;;12.80;99.90;;;;;;5051815;28;20473;-83
2023/12/22 11:42:21;;;;;;;17.67;3.45;;;12.10;99.90;;;;;;5050908;28;20033;-83
2023/12/22 11:44:47;;;;;;;15.82;2.97;;;11.70;99.90;;;;;;5052002;28;20103;-84
2023/12/22 11:47:14;;;;;;;24.00;3.88;;;11.80;99.90;;;;;;5032871;28;20039;-84
2023/12/22 11:49:40;;;;;;;16.93;3.43;;;12.20;99.90;;;;;;5050482;28;20029;-84
2023/12/22 11:52:13;;;;;;;17.70;3.45;;;11.80;99.90;;;;;;5050743;28;20032;-84
2023/12/22 11:54:50;;;;;;;15.18;2.83;;;12.80;99.90;;;;;;5032905;28;20078;-83
2023/12/22 11:57:28;;;;;;;25.33;3.72;;;12.10;99.90;;;;;;5051539;28;20028;-83
2023/12/22 11:59:55;;;;;;;15.75;2.65;;;12.30;99.90;;;;;;5050686;28;20025;-83
2023/12/22 12:02:21;;;;;;;16.15;2.78;;;12.20;99.90;;;;;;5050654;28;20051;-83
2023/12/22 12:04:53;;;;;;;18.73;3.30;;;12.90;99.90;;;;;;5051330;28;20063;-84
2023/12/22 12:07:40;;;;;;;13.98;3.15;;;12.20;99.90;;;;;;5033343;28;20048;-83
2023/12/22 12:10:08;;;;;;;14.23;2.40;;;12.20;99.90;;;;;;5050473;28;20048;-83
2023/12/22 12:12:34;;;;;;;10.55;2.50;;;12.30;99.90;;;;;;5032501;28;20033;-83
2023/12/22 12:15:10;;;;;;;20.63;3.45;;;12.50;99.90;;;;;;5050267;28;20029;-84
2023/12/22 12:17:40;;;;;;;19.83;4.20;;;11.90;99.90;;;;;;5050241;28;20020;-83
2023/12/22 12:20:09;;;;;;;14.98;3.05;;;12.30;99.90;;;;;;5032443;28;20424;-84
2023/12/22 12:22:37;;;;;;;14.27;2.90;;;12.10;99.90;;;;;;5050155;28;20086;-83
2023/12/22 12:25:06;;;;;;;11.23;3.10;;;12.50;99.90;;;;;;5050168;28;20025;-83
2023/12/22 12:27:34;;;;;;;12.55;2.45;;;11.70;99.90;;;;;;5050189;28;20040;-84
2023/12/22 12:30:11;;;;;;;9.02;2.42;;;11.90;99.90;;;;;;5049946;28;20052;-83
2023/12/22 12:32:36;;;;;;;18.00;2.92;;;12.30;99.90;;;;;;5032136;28;20200;-86
2023/12/22 12:35:04;;;;;;;12.27;2.92;;;12.30;99.90;;;;;;5032063;28;20119;-83
2023/12/22 12:37:29;;;;;;;12.13;2.58;;;11.70;99.90;;;;;;5049903;28;20017;-83